Time;durP1;ratioP1;P1;durP2;ratioP2;P2;SDS_P1;SDS_P2;PMS_P1;PMS_P2;Temp;Humidity;BMP_temperature;BMP_pressure;BME280_temperature;BME280_humidity;BME280_pressure;Samples;Min_cycle;Max_cycle;Signal;HPM_P1;HPM_P2
2022/06/15 00:01:22;;;;;;;8.48;4.28;;;13.50;99.90;;;;;;5063576;28;20483;-77
2022/06/15 00:03:48;;;;;;;8.00;4.47;;;13.50;99.90;;;;;;5041372;28;20144;-77
2022/06/15 00:06:23;;;;;;;7.55;3.70;;;13.50;99.90;;;;;;5068111;28;20240;-77
2022/06/15 00:08:51;;;;;;;8.98;4.28;;;13.40;99.90;;;;;;5068512;28;20048;-76
2022/06/15 00:11:23;;;;;;;7.72;3.70;;;13.40;99.90;;;;;;5051343;28;20033;-77
2022/06/15 00:13:51;;;;;;;7.53;4.30;;;13.30;99.90;;;;;;5072328;28;20087;-77
2022/06/15 00:16:18;;;;;;;9.32;4.65;;;13.30;99.90;;;;;;5056264;28;20044;-77
2022/06/15 00:18:45;;;;;;;7.50;4.18;;;13.20;99.90;;;;;;5054851;28;20040;-76
2022/06/15 00:21:12;;;;;;;8.93;4.55;;;13.20;99.90;;;;;;5072047;28;20051;-77
2022/06/15 00:23:39;;;;;;;10.13;5.15;;;13.20;99.90;;;;;;5069450;28;20053;-77
2022/06/15 00:26:05;;;;;;;8.68;4.30;;;13.20;99.90;;;;;;5072468;28;20040;-77
2022/06/15 00:28:32;;;;;;;9.60;5.70;;;13.20;99.90;;;;;;5055745;28;20051;-76
2022/06/15 00:30:58;;;;;;;9.73;5.05;;;13.20;99.90;;;;;;5075021;28;20089;-76
2022/06/15 00:33:25;;;;;;;8.45;4.28;;;13.10;99.90;;;;;;5058861;28;20035;-76
2022/06/15 00:35:59;;;;;;;8.38;3.70;;;13.20;99.90;;;;;;5045823;28;20040;-76
2022/06/15 00:38:28;;;;;;;8.63;4.38;;;13.10;99.90;;;;;;5074797;28;20077;-76
2022/06/15 00:40:54;;;;;;;13.18;7.00;;;13.10;99.90;;;;;;5044641;28;20545;-76
2022/06/15 00:43:31;;;;;;;8.55;4.57;;;13.00;99.90;;;;;;5075500;28;20028;-76
2022/06/15 00:45:59;;;;;;;8.02;4.82;;;13.00;99.90;;;;;;5058906;28;20044;-76
2022/06/15 00:48:25;;;;;;;9.10;5.10;;;13.00;99.90;;;;;;5075722;28;20500;-76
2022/06/15 00:50:51;;;;;;;10.20;5.05;;;12.90;99.90;;;;;;5041942;28;20104;-76
2022/06/15 00:53:17;;;;;;;11.13;5.72;;;12.90;99.90;;;;;;5075375;28;20435;-76
2022/06/15 00:55:43;;;;;;;10.15;6.20;;;12.90;99.90;;;;;;5075471;28;20044;-76
2022/06/15 00:58:10;;;;;;;8.90;5.25;;;12.90;99.90;;;;;;5042468;28;20532;-76
2022/06/15 01:00:37;;;;;;;10.68;6.20;;;12.80;99.90;;;;;;5058706;28;20073;-76
2022/06/15 01:03:05;;;;;;;10.85;6.47;;;12.80;99.90;;;;;;5058891;28;20512;-76
2022/06/15 01:05:39;;;;;;;9.13;5.10;;;12.80;99.90;;;;;;5075059;28;20063;-76
2022/06/15 01:08:30;;;;;;;8.02;4.82;;;12.80;99.90;;;;;;5058318;28;20513;-77
2022/06/15 01:11:28;;;;;;;10.35;5.60;;;12.70;99.90;;;;;;5057996;28;20070;-77
2022/06/15 01:14:33;;;;;;;9.02;5.18;;;12.70;99.90;;;;;;5058474;28;20067;-76
2022/06/15 01:17:19;;;;;;;9.02;5.57;;;12.70;99.90;;;;;;5058297;28;20127;-76
2022/06/15 01:20:06;;;;;;;8.40;5.13;;;12.80;99.90;;;;;;5074700;28;20123;-76
2022/06/15 01:22:40;;;;;;;10.48;5.50;;;12.80;99.90;;;;;;5074973;28;20523;-76
2022/06/15 01:25:23;;;;;;;10.38;6.13;;;12.70;99.90;;;;;;5054962;28;20546;-78
2022/06/15 01:28:16;;;;;;;11.55;6.53;;;12.70;99.90;;;;;;5046036;28;20036;-76
2022/06/15 01:31:07;;;;;;;8.55;5.75;;;12.60;99.90;;;;;;5071256;28;20083;-77
2022/06/15 01:33:33;;;;;;;11.23;6.18;;;12.60;99.90;;;;;;5030559;28;20230;-77
2022/06/15 01:36:20;;;;;;;9.43;5.30;;;12.50;99.90;;;;;;5057778;28;20038;-76
2022/06/15 01:39:00;;;;;;;9.82;5.97;;;12.50;99.90;;;;;;5060887;28;20484;-76
2022/06/15 01:41:41;;;;;;;10.25;6.68;;;12.40;99.90;;;;;;5045856;28;20036;-77
2022/06/15 01:44:12;;;;;;;9.38;5.35;;;12.40;99.90;;;;;;5054318;28;20051;-76
2022/06/15 01:46:44;;;;;;;12.63;7.25;;;12.40;99.90;;;;;;5046854;28;20532;-76
2022/06/15 01:49:14;;;;;;;;;;;12.40;99.90;;;;;;5074364;28;20132;-76
2022/06/15 01:51:43;;;;;;;10.75;6.70;;;12.40;99.90;;;;;;5074294;28;19923;-76
2022/06/15 01:54:13;;;;;;;11.73;7.00;;;12.40;99.90;;;;;;5070839;28;20082;-77
2022/06/15 01:56:47;;;;;;;11.40;5.80;;;12.40;99.90;;;;;;5073252;28;20080;-77
2022/06/15 01:59:25;;;;;;;9.75;6.03;;;12.40;99.90;;;;;;5053721;28;20040;-78
2022/06/15 02:01:51;;;;;;;10.70;6.40;;;12.50;99.90;;;;;;5061787;28;20102;-76
2022/06/15 02:04:49;;;;;;;10.18;5.88;;;12.40;99.90;;;;;;5048738;28;20395;-77
2022/06/15 02:07:23;;;;;;;9.73;6.15;;;12.50;99.90;;;;;;5073489;28;20044;-77
2022/06/15 02:10:25;;;;;;;8.70;5.05;;;12.40;99.90;;;;;;5048149;28;20490;-77
2022/06/15 02:13:05;;;;;;;7.40;4.70;;;12.40;99.90;;;;;;5043919;28;20055;-77
2022/06/15 02:15:33;;;;;;;8.95;4.50;;;12.40;99.90;;;;;;5060835;28;20119;-76
2022/06/15 02:18:03;;;;;;;7.55;4.43;;;12.30;99.90;;;;;;5060564;28;20076;-76
2022/06/15 02:20:33;;;;;;;10.77;6.32;;;12.30;99.90;;;;;;5057663;28;20050;-76
2022/06/15 02:23:02;;;;;;;12.13;8.18;;;12.30;99.90;;;;;;5056800;28;20048;-76
2022/06/15 02:25:34;;;;;;;12.43;7.45;;;12.20;99.90;;;;;;5056894;28;20472;-76
2022/06/15 02:28:02;;;;;;;11.25;8.13;;;12.20;99.90;;;;;;5073162;28;20036;-77
2022/06/15 02:30:30;;;;;;;11.68;6.90;;;12.10;99.90;;;;;;5053815;28;20448;-76
2022/06/15 02:32:56;;;;;;;11.90;7.22;;;12.10;99.90;;;;;;5050808;28;20502;-77
2022/06/15 02:35:22;;;;;;;14.52;8.30;;;12.10;99.90;;;;;;5072956;28;20555;-77
2022/06/15 02:37:50;;;;;;;10.35;7.32;;;12.10;99.90;;;;;;5073084;28;20096;-77
2022/06/15 02:40:19;;;;;;;13.32;8.40;;;12.00;99.90;;;;;;5073523;28;20105;-76
2022/06/15 02:42:46;;;;;;;13.65;9.00;;;12.00;99.90;;;;;;5073424;28;20548;-77
2022/06/15 02:45:36;;;;;;;12.07;8.68;;;12.00;99.90;;;;;;5045364;28;20045;-76
2022/06/15 02:48:05;;;;;;;13.85;9.07;;;12.00;99.90;;;;;;5052255;28;20047;-77
2022/06/15 02:50:37;;;;;;;14.05;8.25;;;12.00;99.90;;;;;;5062877;28;20037;-77
2022/06/15 02:53:05;;;;;;;;;;;11.90;99.90;;;;;;5053414;28;20032;-77
2022/06/15 02:55:32;;;;;;;13.02;8.80;;;11.90;99.90;;;;;;5062617;28;20006;-76
2022/06/15 02:58:09;;;;;;;12.10;7.82;;;11.90;99.90;;;;;;5054935;28;20521;-76
2022/06/15 03:00:37;;;;;;;12.63;8.45;;;11.90;99.90;;;;;;5056576;28;20051;-76
2022/06/15 03:03:03;;;;;;;11.30;7.32;;;11.90;99.90;;;;;;5055985;28;20035;-76
2022/06/15 03:05:28;;;;;;;10.35;7.63;;;11.90;99.90;;;;;;5056063;28;20047;-76
2022/06/15 03:07:54;;;;;;;12.90;7.82;;;11.90;99.90;;;;;;5042555;28;20041;-76
2022/06/15 03:10:20;;;;;;;13.45;8.98;;;11.90;99.90;;;;;;5046390;28;20376;-76
2022/06/15 03:12:45;;;;;;;14.27;9.68;;;11.90;99.90;;;;;;5056316;28;20039;-76
2022/06/15 03:15:11;;;;;;;13.10;9.50;;;11.90;99.90;;;;;;5056535;28;20394;-76
2022/06/15 03:17:37;;;;;;;13.63;8.80;;;11.80;99.90;;;;;;5056716;28;20040;-76
2022/06/15 03:20:04;;;;;;;15.15;9.15;;;11.80;99.90;;;;;;5055554;28;20043;-76
2022/06/15 03:22:33;;;;;;;15.20;9.52;;;11.80;99.90;;;;;;5072997;28;20044;-76
2022/06/15 03:24:59;;;;;;;17.13;11.30;;;11.80;99.90;;;;;;5072772;28;20477;-76
2022/06/15 03:27:24;;;;;;;13.50;8.65;;;11.80;99.90;;;;;;5052812;28;20040;-76
2022/06/15 03:29:50;;;;;;;15.25;10.10;;;11.80;99.90;;;;;;5067006;28;20105;-76
2022/06/15 03:32:17;;;;;;;14.73;9.27;;;11.80;99.90;;;;;;5056429;28;20519;-76
2022/06/15 03:34:44;;;;;;;15.45;9.23;;;11.90;99.90;;;;;;5072678;28;20040;-77
2022/06/15 03:37:10;;;;;;;14.55;8.70;;;11.90;99.90;;;;;;5050774;28;20463;-76
2022/06/15 03:39:36;;;;;;;13.73;9.88;;;11.80;99.90;;;;;;5064355;28;20040;-76
2022/06/15 03:42:19;;;;;;;15.57;10.02;;;11.90;99.90;;;;;;5072649;28;20043;-76
2022/06/15 03:44:45;;;;;;;12.90;9.00;;;11.90;99.90;;;;;;5052355;28;20094;-77
2022/06/15 03:47:17;;;;;;;15.82;11.25;;;11.90;99.90;;;;;;5057191;28;20542;-76
2022/06/15 03:49:53;;;;;;;15.40;10.50;;;11.90;99.90;;;;;;5056939;28;20071;-76
2022/06/15 03:52:23;;;;;;;14.98;10.20;;;11.80;99.90;;;;;;5074608;28;20497;-76
2022/06/15 03:54:49;;;;;;;12.15;8.90;;;11.90;99.90;;;;;;5076387;28;20036;-76
2022/06/15 03:57:18;;;;;;;12.93;9.95;;;11.90;99.90;;;;;;5043202;28;20124;-76
2022/06/15 03:59:45;;;;;;;13.20;9.88;;;11.90;99.90;;;;;;5076459;28;20063;-77
2022/06/15 04:02:11;;;;;;;15.32;10.32;;;11.90;99.90;;;;;;5059236;28;20048;-76
2022/06/15 04:04:37;;;;;;;13.85;9.73;;;11.90;99.90;;;;;;5076291;28;20101;-76
2022/06/15 04:07:04;;;;;;;13.77;8.95;;;11.90;99.90;;;;;;5075893;28;20028;-76
2022/06/15 04:09:31;;;;;;;15.02;10.10;;;11.90;99.90;;;;;;5039023;28;20043;-76
2022/06/15 04:11:59;;;;;;;15.02;10.57;;;11.90;99.90;;;;;;5051103;28;20032;-76
2022/06/15 04:14:26;;;;;;;15.70;10.80;;;11.90;99.90;;;;;;5060179;28;20081;-77
2022/06/15 04:16:56;;;;;;;15.02;10.70;;;11.90;99.90;;;;;;5078506;28;20497;-75
2022/06/15 04:19:29;;;;;;;15.60;11.57;;;12.00;99.90;;;;;;5063500;28;20047;-76
2022/06/15 04:21:55;;;;;;;15.43;10.88;;;12.00;99.90;;;;;;5078581;28;20118;-76
2022/06/15 04:24:23;;;;;;;14.32;10.90;;;12.00;99.90;;;;;;5059974;28;20045;-76
2022/06/15 04:26:50;;;;;;;15.00;11.43;;;12.00;99.90;;;;;;5061702;28;20421;-76
2022/06/15 04:29:17;;;;;;;17.05;10.32;;;12.10;99.90;;;;;;5080256;28;20036;-76
2022/06/15 04:31:43;;;;;;;12.98;9.63;;;12.00;99.90;;;;;;5078888;28;20482;-76
2022/06/15 04:34:10;;;;;;;16.50;10.52;;;12.10;99.90;;;;;;5047382;28;20045;-76
2022/06/15 04:36:38;;;;;;;13.95;10.88;;;12.20;99.90;;;;;;5061517;28;20128;-76
2022/06/15 04:39:05;;;;;;;14.45;10.60;;;12.20;99.90;;;;;;5063318;28;20036;-77
2022/06/15 04:41:33;;;;;;;15.18;10.55;;;12.20;99.90;;;;;;5068608;28;20055;-76
2022/06/15 04:43:59;;;;;;;13.65;9.63;;;12.20;99.90;;;;;;5079665;28;20463;-75
2022/06/15 04:46:25;;;;;;;13.40;9.90;;;12.30;99.90;;;;;;5060375;28;20471;-76
2022/06/15 04:48:50;;;;;;;17.42;10.98;;;12.40;99.90;;;;;;5056904;28;20043;-77
2022/06/15 04:51:23;;;;;;;14.70;10.75;;;12.50;99.90;;;;;;5058849;28;20510;-76
2022/06/15 04:53:52;;;;;;;12.60;9.43;;;12.70;99.90;;;;;;5058941;28;20542;-76
2022/06/15 04:56:18;;;;;;;14.40;10.20;;;13.00;99.90;;;;;;5048337;28;20678;-76
2022/06/15 04:58:44;;;;;;;13.65;9.75;;;13.10;99.90;;;;;;5074720;28;20039;-76
2022/06/15 05:01:11;;;;;;;12.77;9.27;;;13.70;99.90;;;;;;5062460;28;20036;-76
2022/06/15 05:03:37;;;;;;;13.35;9.35;;;14.30;99.90;;;;;;5041826;28;20038;-76
2022/06/15 05:06:50;;;;;;;12.25;8.18;;;14.30;99.90;;;;;;5076070;28;20040;-76
2022/06/15 05:09:15;;;;;;;;;;;14.40;99.90;;;;;;5057388;28;20048;-77
2022/06/15 05:11:41;;;;;;;12.20;8.93;;;15.20;99.90;;;;;;5077035;28;19946;-77
2022/06/15 05:14:07;;;;;;;11.10;8.38;;;15.40;99.90;;;;;;5049535;28;20079;-77
2022/06/15 05:16:33;;;;;;;12.77;7.50;;;15.90;99.90;;;;;;5073117;28;20119;-76
2022/06/15 05:18:59;;;;;;;12.13;8.48;;;16.30;99.90;;;;;;5047432;28;20048;-76
2022/06/15 05:21:27;;;;;;;10.30;7.40;;;16.70;99.90;;;;;;5072703;28;20044;-76
2022/06/15 05:23:53;;;;;;;10.77;6.53;;;17.80;99.90;;;;;;5064474;28;20056;-76
2022/06/15 05:26:24;;;;;;;10.43;6.75;;;19.40;99.90;;;;;;5074951;28;20505;-77
2022/06/15 05:28:50;;;;;;;11.45;6.78;;;19.40;99.90;;;;;;5058770;28;20032;-77
2022/06/15 05:31:20;;;;;;;12.88;7.30;;;19.20;99.90;;;;;;5075838;28;20036;-77
2022/06/15 05:33:46;;;;;;;12.50;6.35;;;19.20;99.90;;;;;;5057074;28;20041;-77
2022/06/15 05:36:15;;;;;;;11.15;6.38;;;19.40;99.90;;;;;;5064594;28;20039;-77
2022/06/15 05:38:41;;;;;;;9.95;5.95;;;19.40;99.90;;;;;;5074500;28;20032;-77
2022/06/15 05:41:08;;;;;;;9.70;5.82;;;20.00;99.90;;;;;;5054919;28;20050;-76
2022/06/15 05:43:36;;;;;;;13.05;6.90;;;19.60;99.70;;;;;;5068970;28;20497;-77
2022/06/15 05:46:23;;;;;;;9.75;6.03;;;20.10;95.20;;;;;;5074832;28;20059;-77
2022/06/15 05:48:49;;;;;;;11.38;6.38;;;19.80;98.20;;;;;;5074832;28;20040;-77
2022/06/15 05:51:14;;;;;;;12.77;6.65;;;19.70;99.30;;;;;;5054126;28;20060;-77
2022/06/15 05:53:40;;;;;;;8.73;5.50;;;20.40;97.30;;;;;;5051517;28;20483;-77
2022/06/15 05:56:06;;;;;;;9.68;5.68;;;20.90;98.70;;;;;;5074518;28;20116;-77
2022/06/15 05:58:32;;;;;;;9.90;6.38;;;21.80;96.10;;;;;;5054501;28;20052;-77
2022/06/15 06:01:05;;;;;;;11.18;6.95;;;21.50;94.10;;;;;;5051942;28;20483;-78
2022/06/15 06:03:31;;;;;;;9.65;6.07;;;21.70;94.20;;;;;;5045197;28;20040;-77
2022/06/15 06:05:57;;;;;;;13.35;6.35;;;21.40;94.60;;;;;;5070566;28;20387;-77
2022/06/15 06:08:22;;;;;;;8.70;5.28;;;21.70;94.60;;;;;;5023699;28;20043;-77
2022/06/15 06:10:49;;;;;;;10.38;5.60;;;22.90;92.70;;;;;;5054351;28;20040;-78
2022/06/15 06:13:15;;;;;;;8.48;4.82;;;22.10;92.30;;;;;;5052732;28;20124;-77
2022/06/15 06:15:40;;;;;;;9.48;4.70;;;23.00;91.10;;;;;;5046382;28;20704;-77
2022/06/15 06:18:06;;;;;;;11.90;5.22;;;22.90;85.50;;;;;;5052301;28;20036;-77
2022/06/15 06:20:32;;;;;;;10.80;4.80;;;22.70;81.60;;;;;;5040760;28;20456;-78
2022/06/15 06:22:58;;;;;;;8.80;4.88;;;22.30;80.80;;;;;;5056329;28;20040;-77
2022/06/15 06:25:23;;;;;;;10.57;4.40;;;21.40;86.60;;;;;;5039975;28;20044;-77
2022/06/15 06:27:49;;;;;;;7.88;3.90;;;22.10;91.50;;;;;;5062429;28;20089;-77
2022/06/15 06:30:15;;;;;;;8.77;4.93;;;23.10;84.80;;;;;;5071948;28;20075;-78
2022/06/15 06:32:40;;;;;;;8.38;4.93;;;23.90;77.40;;;;;;5073381;28;20089;-78
2022/06/15 06:35:07;;;;;;;9.00;4.28;;;22.30;77.30;;;;;;5072370;28;20540;-78
2022/06/15 06:37:35;;;;;;;7.63;4.40;;;21.70;89.20;;;;;;5066149;28;20040;-78
2022/06/15 06:40:01;;;;;;;9.63;4.55;;;21.80;92.50;;;;;;5072807;28;20048;-79
2022/06/15 06:42:27;;;;;;;7.88;4.00;;;22.40;88.80;;;;;;5076748;28;20512;-78
2022/06/15 06:44:53;;;;;;;10.07;4.32;;;23.20;84.00;;;;;;5047270;28;20044;-78
2022/06/15 06:47:18;;;;;;;8.55;4.20;;;23.30;79.00;;;;;;5052376;28;20036;-78
2022/06/15 06:49:44;;;;;;;7.95;4.47;;;23.30;78.30;;;;;;5049415;28;20078;-78
2022/06/15 06:52:10;;;;;;;10.15;4.28;;;22.80;76.20;;;;;;5056722;28;20411;-78
2022/06/15 06:54:36;;;;;;;9.20;3.90;;;22.40;80.60;;;;;;5072990;28;20040;-78
2022/06/15 06:57:02;;;;;;;8.80;4.63;;;22.80;81.90;;;;;;5063833;28;20131;-78
2022/06/15 06:59:28;;;;;;;10.40;3.90;;;23.00;77.90;;;;;;5035454;28;20044;-78
2022/06/15 07:01:54;;;;;;;10.75;4.00;;;23.40;79.70;;;;;;5049970;28;20127;-79
2022/06/15 07:04:20;;;;;;;9.38;4.38;;;23.30;74.00;;;;;;5070597;28;20122;-78
2022/06/15 07:06:46;;;;;;;8.45;3.80;;;23.40;75.20;;;;;;5072829;28;20039;-78
2022/06/15 07:09:13;;;;;;;8.68;4.20;;;23.40;72.60;;;;;;5044176;28;20046;-79
2022/06/15 07:11:42;;;;;;;8.73;4.00;;;23.60;69.50;;;;;;5073158;28;20498;-78
2022/06/15 07:14:08;;;;;;;7.72;3.70;;;24.00;71.00;;;;;;5072938;28;20375;-79
2022/06/15 07:16:35;;;;;;;8.85;4.07;;;24.60;69.50;;;;;;5072418;28;20044;-78
2022/06/15 07:19:01;;;;;;;9.13;3.70;;;24.70;64.60;;;;;;5069358;28;20070;-78
2022/06/15 07:21:28;;;;;;;7.07;3.50;;;24.50;64.30;;;;;;5055334;28;20040;-78
2022/06/15 07:23:56;;;;;;;9.10;3.42;;;24.10;66.00;;;;;;5072007;28;20043;-78
2022/06/15 07:26:28;;;;;;;7.72;3.17;;;24.40;63.70;;;;;;5072528;28;20052;-79
2022/06/15 07:28:54;;;;;;;8.43;3.25;;;25.70;63.40;;;;;;5073255;28;20506;-79
2022/06/15 07:31:36;;;;;;;7.82;3.15;;;25.50;59.20;;;;;;5049781;28;20039;-79
2022/06/15 07:34:03;;;;;;;8.40;3.42;;;25.70;60.50;;;;;;5062730;28;20517;-79
2022/06/15 07:36:29;;;;;;;8.88;3.83;;;26.20;58.10;;;;;;5051922;28;20040;-79
2022/06/15 07:38:57;;;;;;;9.48;3.70;;;25.50;56.30;;;;;;5051106;28;20094;-79
2022/06/15 07:41:23;;;;;;;8.35;3.20;;;24.40;60.00;;;;;;5059077;28;20075;-80
2022/06/15 07:43:49;;;;;;;9.68;3.20;;;24.90;58.10;;;;;;5046515;28;20039;-78
2022/06/15 07:46:16;;;;;;;7.70;2.90;;;24.80;57.40;;;;;;5049684;28;20480;-78
2022/06/15 07:51:45;;;;;;;6.97;2.42;;;24.60;56.40;;;;;;5061130;28;20094;-79
2022/06/15 07:54:15;;;;;;;7.03;2.45;;;24.60;56.70;;;;;;5061560;28;20044;-78
2022/06/15 07:56:41;;;;;;;6.88;2.22;;;24.40;55.40;;;;;;5047638;28;20071;-79
2022/06/15 07:59:07;;;;;;;7.50;2.88;;;24.70;55.10;;;;;;5043012;28;20044;-79
2022/06/15 08:01:33;;;;;;;6.93;2.33;;;24.60;54.30;;;;;;5038346;28;20048;-79
2022/06/15 08:04:00;;;;;;;7.38;2.08;;;24.80;57.30;;;;;;5064278;28;20482;-79
2022/06/15 08:06:25;;;;;;;6.80;2.20;;;24.70;53.80;;;;;;5064557;28;20040;-80
2022/06/15 08:08:52;;;;;;;8.27;2.10;;;24.70;52.80;;;;;;5066875;28;20071;-79
2022/06/15 08:11:18;;;;;;;6.18;2.10;;;25.00;52.50;;;;;;5046479;28;20486;-79
2022/06/15 08:13:45;;;;;;;5.18;1.90;;;25.00;53.50;;;;;;5062243;28;20037;-78
2022/06/15 08:16:13;;;;;;;6.35;1.85;;;24.90;51.20;;;;;;5042837;28;20050;-79
2022/06/15 08:18:42;;;;;;;6.30;1.83;;;24.70;55.30;;;;;;5046248;28;20111;-79
2022/06/15 08:21:16;;;;;;;6.25;2.10;;;24.60;48.50;;;;;;5071606;28;20391;-79
2022/06/15 08:23:45;;;;;;;6.03;1.90;;;24.10;49.10;;;;;;5061303;28;20032;-79
2022/06/15 08:26:15;;;;;;;6.32;1.80;;;23.80;50.50;;;;;;5063880;28;20398;-79
2022/06/15 08:28:45;;;;;;;5.85;1.70;;;23.00;48.20;;;;;;5063184;28;20040;-78
2022/06/15 08:31:12;;;;;;;4.78;1.48;;;23.40;53.40;;;;;;5064643;28;20572;-78
2022/06/15 08:33:38;;;;;;;6.65;2.00;;;23.80;49.90;;;;;;5075344;28;20066;-79
2022/06/15 08:36:04;;;;;;;5.40;1.70;;;23.70;47.10;;;;;;5051440;28;20534;-79
2022/06/15 08:38:30;;;;;;;5.75;1.73;;;23.60;51.70;;;;;;5066669;28;20035;-79
2022/06/15 08:41:03;;;;;;;6.25;1.88;;;23.60;49.70;;;;;;5055892;28;20483;-79
2022/06/15 08:43:52;;;;;;;5.30;1.90;;;24.00;50.30;;;;;;5048479;28;20058;-79
2022/06/15 08:46:59;;;;;;;5.35;1.70;;;24.00;48.60;;;;;;5024487;28;20471;-79
2022/06/15 08:49:31;;;;;;;5.97;1.83;;;23.60;49.00;;;;;;5048408;28;20051;-79
2022/06/15 08:52:01;;;;;;;5.18;1.90;;;23.90;48.80;;;;;;5052109;28;20540;-79
2022/06/15 08:54:41;;;;;;;6.07;1.80;;;23.70;50.60;;;;;;5050332;28;20539;-79
2022/06/15 08:57:09;;;;;;;4.55;1.50;;;24.30;47.60;;;;;;5051747;28;20508;-79
2022/06/15 08:59:58;;;;;;;7.82;2.17;;;24.20;48.20;;;;;;5056307;28;20028;-79
2022/06/15 09:02:40;;;;;;;8.23;2.10;;;24.60;52.20;;;;;;5052042;28;20036;-79
2022/06/15 09:05:28;;;;;;;8.30;2.00;;;24.70;51.70;;;;;;5076674;28;20048;-79
2022/06/15 09:08:15;;;;;;;6.72;2.13;;;24.80;51.70;;;;;;5045889;28;20051;-79
2022/06/15 09:11:15;;;;;;;7.15;2.10;;;25.30;50.30;;;;;;5062138;28;20101;-79
2022/06/15 09:14:19;;;;;;;5.72;1.92;;;25.50;47.50;;;;;;5070273;28;20096;-79
2022/06/15 09:17:10;;;;;;;5.20;2.10;;;25.00;49.70;;;;;;5049446;28;20040;-79
2022/06/15 09:19:41;;;;;;;5.65;1.90;;;24.50;51.30;;;;;;5067615;28;20040;-79
2022/06/15 09:22:11;;;;;;;4.85;1.90;;;24.60;51.70;;;;;;5067677;28;20527;-78
2022/06/15 09:25:12;;;;;;;5.75;2.22;;;25.00;49.90;;;;;;5069366;28;20559;-79
2022/06/15 09:27:48;;;;;;;5.65;2.20;;;24.60;48.30;;;;;;5066536;28;20037;-79
2022/06/15 09:30:21;;;;;;;6.85;2.08;;;24.70;49.70;;;;;;5074350;28;20490;-79
2022/06/15 09:33:33;;;;;;;6.00;2.00;;;24.90;50.60;;;;;;5050764;28;20064;-79
2022/06/15 09:36:10;;;;;;;7.57;1.90;;;24.90;50.70;;;;;;5047979;28;20072;-79
2022/06/15 09:38:37;;;;;;;6.22;2.17;;;24.90;49.70;;;;;;5068819;28;20495;-79
2022/06/15 09:41:11;;;;;;;7.40;2.13;;;24.70;49.60;;;;;;5050968;28;20047;-79
2022/06/15 09:44:02;;;;;;;5.97;2.08;;;24.80;49.50;;;;;;5053139;28;20044;-78
2022/06/15 09:46:44;;;;;;;7.93;2.10;;;25.00;50.80;;;;;;5063000;28;20403;-79
2022/06/15 09:49:21;;;;;;;5.72;2.17;;;25.10;50.50;;;;;;5056388;28;20040;-79
2022/06/15 09:51:53;;;;;;;8.30;1.90;;;24.70;48.80;;;;;;5068064;28;20123;-79
2022/06/15 09:54:41;;;;;;;4.50;1.70;;;24.80;50.40;;;;;;5065277;28;21420;-79
2022/06/15 09:57:07;;;;;;;5.70;1.90;;;25.10;49.30;;;;;;5055160;28;20040;-79
2022/06/15 09:59:33;;;;;;;5.85;1.90;;;25.40;49.30;;;;;;5069828;28;20040;-78
2022/06/15 10:02:02;;;;;;;5.25;1.90;;;25.30;49.00;;;;;;5032673;28;20044;-79
2022/06/15 10:04:31;;;;;;;7.32;2.40;;;25.30;43.90;;;;;;5038227;28;20089;-78
2022/06/15 10:07:11;;;;;;;8.70;2.35;;;25.30;48.20;;;;;;5064664;28;20036;-79
2022/06/15 10:09:43;;;;;;;6.50;2.05;;;25.40;47.80;;;;;;5066776;28;20051;-79
2022/06/15 10:12:58;;;;;;;7.07;2.13;;;25.00;48.60;;;;;;5069780;28;20051;-79
2022/06/15 10:15:32;;;;;;;6.75;2.20;;;24.20;49.60;;;;;;5044062;28;20059;-79
2022/06/15 10:18:14;;;;;;;6.25;1.90;;;24.30;49.00;;;;;;5067403;28;20045;-79
2022/06/15 10:20:41;;;;;;;5.47;1.80;;;24.50;52.30;;;;;;5067625;28;20040;-79
2022/06/15 10:23:21;;;;;;;5.72;2.15;;;24.80;50.70;;;;;;5057463;28;20047;-79
2022/06/15 10:25:55;;;;;;;5.70;2.00;;;25.00;48.80;;;;;;5066090;28;20066;-80
2022/06/15 10:28:41;;;;;;;6.57;2.00;;;25.30;49.10;;;;;;5067733;28;20173;-79
2022/06/15 10:31:13;;;;;;;5.88;2.20;;;25.10;47.50;;;;;;5066367;28;20036;-79
2022/06/15 10:33:43;;;;;;;6.57;2.00;;;25.10;47.80;;;;;;5048119;28;20047;-79
2022/06/15 10:36:30;;;;;;;9.07;2.50;;;25.40;47.90;;;;;;5052477;28;20042;-79
2022/06/15 10:39:29;;;;;;;5.72;2.10;;;24.50;47.80;;;;;;5070229;28;20039;-78
2022/06/15 10:42:16;;;;;;;6.50;2.30;;;24.90;47.10;;;;;;5069102;28;20040;-79
2022/06/15 10:44:52;;;;;;;5.63;2.00;;;24.90;47.60;;;;;;5050450;28;21047;-79
2022/06/15 10:47:25;;;;;;;6.75;2.30;;;25.10;47.40;;;;;;5085926;28;20042;-79
2022/06/15 10:50:00;;;;;;;5.57;2.20;;;25.00;48.10;;;;;;5072080;28;20051;-79
2022/06/15 10:52:44;;;;;;;6.47;1.98;;;24.90;47.80;;;;;;5070202;28;20039;-79
2022/06/15 11:04:31;;;;;;;6.88;2.10;;;25.20;47.40;;;;;;5064101;28;20048;-79
2022/06/15 11:07:03;;;;;;;5.93;1.80;;;25.00;48.30;;;;;;5061997;28;20043;-79
2022/06/15 11:09:31;;;;;;;5.18;2.00;;;25.00;48.40;;;;;;5075658;28;20066;-79
2022/06/15 11:12:00;;;;;;;6.03;2.17;;;24.70;47.00;;;;;;5068997;28;20032;-79
2022/06/15 11:14:49;;;;;;;8.00;2.20;;;25.10;48.10;;;;;;5071797;28;20054;-79
2022/06/15 11:20:19;;;;;;;7.97;2.53;;;25.00;47.70;;;;;;5066641;28;20044;-79
2022/06/15 11:22:48;;;;;;;7.80;2.45;;;24.00;50.00;;;;;;5049506;28;20052;-79
2022/06/15 11:25:17;;;;;;;6.13;2.60;;;24.40;50.90;;;;;;5051627;28;20574;-79
2022/06/15 11:27:54;;;;;;;5.97;2.33;;;24.50;51.30;;;;;;5045640;28;20090;-79
2022/06/15 11:30:27;;;;;;;5.65;2.20;;;24.40;53.10;;;;;;5067913;28;20033;-79
2022/06/15 11:33:20;;;;;;;6.07;2.20;;;24.70;51.40;;;;;;5047509;28;20036;-79
2022/06/15 11:36:22;;;;;;;6.15;2.30;;;24.80;52.50;;;;;;5070844;28;20491;-79
2022/06/15 11:39:09;;;;;;;7.50;2.30;;;24.80;50.00;;;;;;5041604;28;20104;-80
2022/06/15 11:41:46;;;;;;;6.43;2.30;;;24.60;47.00;;;;;;5049780;28;20048;-79
2022/06/15 11:44:16;;;;;;;7.43;2.33;;;24.20;51.10;;;;;;5050185;28;20045;-79
2022/06/15 11:46:59;;;;;;;6.38;2.33;;;24.20;51.90;;;;;;5069786;28;20092;-79
2022/06/15 11:49:53;;;;;;;7.03;2.42;;;24.20;51.50;;;;;;5064365;28;20067;-79
2022/06/15 11:52:37;;;;;;;6.85;2.25;;;24.40;51.40;;;;;;5085281;28;20032;-79
2022/06/15 11:55:20;;;;;;;6.85;2.35;;;24.50;51.80;;;;;;5057103;28;20494;-79
2022/06/15 11:58:26;;;;;;;6.75;2.22;;;24.50;51.00;;;;;;5065009;28;20036;-79
2022/06/15 12:01:40;;;;;;;6.30;2.10;;;24.40;51.10;;;;;;5060393;28;20362;-78
2022/06/15 12:04:27;;;;;;;6.35;2.33;;;24.70;51.90;;;;;;5065604;28;20114;-79
2022/06/15 12:07:05;;;;;;;6.35;2.30;;;25.00;50.50;;;;;;5070398;28;20048;-79
2022/06/15 12:10:07;;;;;;;6.18;2.10;;;24.90;47.40;;;;;;5056678;28;20483;-79
2022/06/15 12:12:46;;;;;;;7.22;2.20;;;24.90;47.30;;;;;;5053552;28;20033;-79
2022/06/15 12:15:24;;;;;;;5.57;2.30;;;24.60;49.30;;;;;;5058453;28;20059;-79
2022/06/15 12:18:20;;;;;;;5.65;2.03;;;24.40;50.00;;;;;;5071964;28;20044;-78
2022/06/15 12:20:56;;;;;;;6.88;2.50;;;24.10;51.10;;;;;;5056431;28;20051;-79
2022/06/15 12:23:33;;;;;;;6.10;2.22;;;24.50;51.50;;;;;;5067680;28;20486;-79
2022/06/15 12:26:02;;;;;;;6.68;2.35;;;24.50;50.80;;;;;;4959899;28;20054;-80
2022/06/15 12:28:58;;;;;;;6.80;2.20;;;24.30;50.30;;;;;;4987706;28;20121;-79
2022/06/15 12:31:43;;;;;;;7.40;2.50;;;24.20;51.10;;;;;;5008067;28;20034;-78
2022/06/15 12:34:19;;;;;;;6.38;2.25;;;24.20;51.50;;;;;;4992027;28;20170;-79
2022/06/15 12:36:53;;;;;;;7.00;2.45;;;24.50;50.60;;;;;;4974660;28;20121;-78
2022/06/15 12:39:43;;;;;;;7.63;2.70;;;24.50;51.40;;;;;;5001564;28;20082;-79
2022/06/15 12:42:14;;;;;;;5.03;2.13;;;24.60;52.00;;;;;;4987067;28;20039;-79
2022/06/15 12:45:02;;;;;;;7.57;2.28;;;24.60;51.60;;;;;;4973301;28;20409;-80
2022/06/15 12:47:29;;;;;;;6.40;2.00;;;24.90;51.10;;;;;;4979112;28;20045;-79
2022/06/15 12:50:53;;;;;;;6.70;2.10;;;25.30;51.30;;;;;;4988451;28;20049;-79
2022/06/15 12:53:52;;;;;;;5.45;2.00;;;25.40;52.00;;;;;;4922170;29;20038;-79
2022/06/15 12:56:25;;;;;;;6.05;2.33;;;25.20;51.90;;;;;;4936672;28;20035;-79
2022/06/15 12:59:07;;;;;;;5.47;2.05;;;24.90;48.90;;;;;;4963512;28;20138;-79
2022/06/15 13:01:43;;;;;;;5.97;2.10;;;24.90;51.80;;;;;;4989154;28;20039;-79
2022/06/15 13:04:27;;;;;;;6.65;2.30;;;24.60;51.20;;;;;;4989634;28;20034;-79
2022/06/15 13:07:15;;;;;;;6.18;2.25;;;24.60;52.00;;;;;;4988751;28;20080;-79
2022/06/15 13:09:41;;;;;;;6.13;2.20;;;24.60;52.00;;;;;;5003940;28;20034;-80
2022/06/15 13:12:08;;;;;;;6.97;2.20;;;24.60;51.50;;;;;;4972544;28;20050;-80
2022/06/15 13:14:56;;;;;;;6.95;2.20;;;24.40;50.70;;;;;;4986358;28;20121;-80
2022/06/15 13:17:29;;;;;;;5.72;1.95;;;24.50;50.70;;;;;;4989278;28;20133;-79
2022/06/15 13:20:10;;;;;;;8.18;2.20;;;24.50;51.50;;;;;;5002584;28;20709;-80
2022/06/15 13:22:40;;;;;;;;;;;24.90;51.10;;;;;;4989939;28;20050;-79
2022/06/15 13:25:08;;;;;;;7.25;2.10;;;24.50;49.30;;;;;;5023470;28;20384;-80
2022/06/15 13:27:40;;;;;;;6.75;2.13;;;24.40;50.20;;;;;;4996356;28;20041;-80
2022/06/15 13:30:21;;;;;;;7.80;2.50;;;24.40;49.70;;;;;;5023626;28;20102;-80